sensor_id;sensor_type;location;lat;lon;timestamp;temperature;humidity
10443;DHT22;5269;51.146;16.986;2022-12-29T00:00:03;8.10;1.00
10443;DHT22;5269;51.146;16.986;2022-12-29T00:02:33;8.30;1.00
10443;DHT22;5269;51.146;16.986;2022-12-29T00:04:59;8.40;1.00
10443;DHT22;5269;51.146;16.986;2022-12-29T00:07:26;8.40;1.00
10443;DHT22;5269;51.146;16.986;2022-12-29T00:09:53;8.40;1.00
10443;DHT22;5269;51.146;16.986;2022-12-29T00:12:20;8.40;1.00
10443;DHT22;5269;51.146;16.986;2022-12-29T00:14:47;8.40;1.00
10443;DHT22;5269;51.146;16.986;2022-12-29T00:17:33;8.30;1.00
10443;DHT22;5269;51.146;16.986;2022-12-29T00:20:00;8.00;1.00
10443;DHT22;5269;51.146;16.986;2022-12-29T00:22:43;7.80;1.00
10443;DHT22;5269;51.146;16.986;2022-12-29T00:25:27;7.60;1.00
10443;DHT22;5269;51.146;16.986;2022-12-29T00:28:12;7.50;1.00
10443;DHT22;5269;51.146;16.986;2022-12-29T00:30:59;7.30;1.00
10443;DHT22;5269;51.146;16.986;2022-12-29T00:33:45;7.20;1.00
10443;DHT22;5269;51.146;16.986;2022-12-29T00:36:32;7.10;1.00
10443;DHT22;5269;51.146;16.986;2022-12-29T00:39:02;7.10;1.00
10443;DHT22;5269;51.146;16.986;2022-12-29T00:41:47;7.00;1.00
10443;DHT22;5269;51.146;16.986;2022-12-29T00:44:32;7.10;1.00
10443;DHT22;5269;51.146;16.986;2022-12-29T00:46:59;7.00;1.00
10443;DHT22;5269;51.146;16.986;2022-12-29T00:49:30;7.00;1.00
10443;DHT22;5269;51.146;16.986;2022-12-29T00:51:58;7.00;1.00
10443;DHT22;5269;51.146;16.986;2022-12-29T00:54:25;7.10;1.00
10443;DHT22;5269;51.146;16.986;2022-12-29T00:56:53;7.00;1.00
10443;DHT22;5269;51.146;16.986;2022-12-29T00:59:20;7.00;1.00
10443;DHT22;5269;51.146;16.986;2022-12-29T01:01:49;7.00;1.00
10443;DHT22;5269;51.146;16.986;2022-12-29T01:04:18;6.90;1.00
10443;DHT22;5269;51.146;16.986;2022-12-29T01:06:47;6.90;1.00
10443;DHT22;5269;51.146;16.986;2022-12-29T01:09:14;6.90;1.00
10443;DHT22;5269;51.146;16.986;2022-12-29T01:11:59;6.90;1.00
10443;DHT22;5269;51.146;16.986;2022-12-29T01:14:26;6.90;1.00
10443;DHT22;5269;51.146;16.986;2022-12-29T01:16:54;6.90;1.00
10443;DHT22;5269;51.146;16.986;2022-12-29T01:19:21;6.80;1.00
10443;DHT22;5269;51.146;16.986;2022-12-29T01:21:50;6.90;1.00
10443;DHT22;5269;51.146;16.986;2022-12-29T01:24:18;6.80;1.00
10443;DHT22;5269;51.146;16.986;2022-12-29T01:26:45;6.90;1.00
10443;DHT22;5269;51.146;16.986;2022-12-29T01:29:15;7.00;1.00
10443;DHT22;5269;51.146;16.986;2022-12-29T01:31:43;7.00;1.00
10443;DHT22;5269;51.146;16.986;2022-12-29T01:34:09;7.10;1.00
10443;DHT22;5269;51.146;16.986;2022-12-29T01:36:36;7.20;1.00
10443;DHT22;5269;51.146;16.986;2022-12-29T01:39:05;7.20;1.00
10443;DHT22;5269;51.146;16.986;2022-12-29T01:41:32;7.30;1.00
10443;DHT22;5269;51.146;16.986;2022-12-29T01:43:59;7.30;1.00
10443;DHT22;5269;51.146;16.986;2022-12-29T01:46:30;7.30;1.00
10443;DHT22;5269;51.146;16.986;2022-12-29T01:49:02;7.30;1.00
10443;DHT22;5269;51.146;16.986;2022-12-29T01:51:32;7.30;1.00
10443;DHT22;5269;51.146;16.986;2022-12-29T01:54:02;7.30;1.00
10443;DHT22;5269;51.146;16.986;2022-12-29T01:56:33;7.30;1.00
10443;DHT22;5269;51.146;16.986;2022-12-29T01:59:02;7.30;1.00
10443;DHT22;5269;51.146;16.986;2022-12-29T02:01:32;7.20;1.00
10443;DHT22;5269;51.146;16.986;2022-12-29T02:03:59;7.10;1.00
10443;DHT22;5269;51.146;16.986;2022-12-29T02:06:29;7.10;1.00
10443;DHT22;5269;51.146;16.986;2022-12-29T02:08:59;7.10;1.00
10443;DHT22;5269;51.146;16.986;2022-12-29T02:11:29;7.10;1.00
10443;DHT22;5269;51.146;16.986;2022-12-29T02:13:57;7.10;1.00
10443;DHT22;5269;51.146;16.986;2022-12-29T02:16:44;7.00;1.00
10443;DHT22;5269;51.146;16.986;2022-12-29T02:19:38;7.00;1.00
10443;DHT22;5269;51.146;16.986;2022-12-29T02:22:17;7.00;1.00
10443;DHT22;5269;51.146;16.986;2022-12-29T02:25:06;7.10;1.00
10443;DHT22;5269;51.146;16.986;2022-12-29T02:27:47;7.10;1.00
10443;DHT22;5269;51.146;16.986;2022-12-29T02:33:24;7.00;1.00
10443;DHT22;5269;51.146;16.986;2022-12-29T02:36:03;7.00;1.00
10443;DHT22;5269;51.146;16.986;2022-12-29T02:38:46;7.00;1.00
10443;DHT22;5269;51.146;16.986;2022-12-29T02:41:21;7.00;1.00
10443;DHT22;5269;51.146;16.986;2022-12-29T02:43:54;7.00;1.00
10443;DHT22;5269;51.146;16.986;2022-12-29T02:46:31;7.10;1.00
10443;DHT22;5269;51.146;16.986;2022-12-29T02:49:05;7.10;1.00
10443;DHT22;5269;51.146;16.986;2022-12-29T02:51:38;7.10;1.00
10443;DHT22;5269;51.146;16.986;2022-12-29T02:54:06;7.20;1.00
10443;DHT22;5269;51.146;16.986;2022-12-29T02:56:50;7.30;1.00
10443;DHT22;5269;51.146;16.986;2022-12-29T02:59:18;7.30;1.00
10443;DHT22;5269;51.146;16.986;2022-12-29T03:02:01;7.40;1.00
10443;DHT22;5269;51.146;16.986;2022-12-29T03:05:03;7.40;1.00
10443;DHT22;5269;51.146;16.986;2022-12-29T03:07:39;7.50;1.00
10443;DHT22;5269;51.146;16.986;2022-12-29T03:10:16;7.60;1.00
10443;DHT22;5269;51.146;16.986;2022-12-29T03:12:51;7.70;1.00
10443;DHT22;5269;51.146;16.986;2022-12-29T03:15:42;7.70;1.00
10443;DHT22;5269;51.146;16.986;2022-12-29T03:18:44;7.80;1.00
10443;DHT22;5269;51.146;16.986;2022-12-29T03:21:15;7.80;1.00
10443;DHT22;5269;51.146;16.986;2022-12-29T03:23:45;7.80;1.00
10443;DHT22;5269;51.146;16.986;2022-12-29T03:26:16;7.90;1.00
10443;DHT22;5269;51.146;16.986;2022-12-29T03:28:47;8.10;1.00
10443;DHT22;5269;51.146;16.986;2022-12-29T03:31:16;8.20;1.00
10443;DHT22;5269;51.146;16.986;2022-12-29T03:33:46;8.30;1.00
10443;DHT22;5269;51.146;16.986;2022-12-29T03:36:23;8.30;1.00
10443;DHT22;5269;51.146;16.986;2022-12-29T03:38:58;8.20;1.00
10443;DHT22;5269;51.146;16.986;2022-12-29T03:41:28;8.20;1.00
10443;DHT22;5269;51.146;16.986;2022-12-29T03:43:56;8.10;1.00
10443;DHT22;5269;51.146;16.986;2022-12-29T03:46:23;8.00;1.00
10443;DHT22;5269;51.146;16.986;2022-12-29T03:48:51;7.80;1.00
10443;DHT22;5269;51.146;16.986;2022-12-29T03:51:18;7.60;1.00
10443;DHT22;5269;51.146;16.986;2022-12-29T03:53:45;7.40;1.00
10443;DHT22;5269;51.146;16.986;2022-12-29T03:56:12;7.30;1.00
10443;DHT22;5269;51.146;16.986;2022-12-29T03:58:39;7.20;1.00
10443;DHT22;5269;51.146;16.986;2022-12-29T04:01:06;7.20;1.00
10443;DHT22;5269;51.146;16.986;2022-12-29T04:03:33;7.20;1.00
10443;DHT22;5269;51.146;16.986;2022-12-29T04:06:01;7.10;1.00
10443;DHT22;5269;51.146;16.986;2022-12-29T04:08:28;7.10;1.00
10443;DHT22;5269;51.146;16.986;2022-12-29T04:10:55;7.10;1.00
10443;DHT22;5269;51.146;16.986;2022-12-29T04:13:22;7.10;1.00
10443;DHT22;5269;51.146;16.986;2022-12-29T04:15:49;7.10;1.00
10443;DHT22;5269;51.146;16.986;2022-12-29T04:18:16;7.10;1.00
10443;DHT22;5269;51.146;16.986;2022-12-29T04:20:44;7.10;1.00
10443;DHT22;5269;51.146;16.986;2022-12-29T04:23:30;7.10;1.00
10443;DHT22;5269;51.146;16.986;2022-12-29T04:25:58;7.00;1.00
10443;DHT22;5269;51.146;16.986;2022-12-29T04:28:25;7.00;1.00
10443;DHT22;5269;51.146;16.986;2022-12-29T04:30:52;7.00;1.00
10443;DHT22;5269;51.146;16.986;2022-12-29T04:33:19;7.00;1.00
10443;DHT22;5269;51.146;16.986;2022-12-29T04:35:46;7.00;1.00
10443;DHT22;5269;51.146;16.986;2022-12-29T04:38:13;7.00;1.00
10443;DHT22;5269;51.146;16.986;2022-12-29T04:40:44;7.00;1.00
10443;DHT22;5269;51.146;16.986;2022-12-29T04:43:12;7.10;1.00
10443;DHT22;5269;51.146;16.986;2022-12-29T04:45:39;7.10;1.00
10443;DHT22;5269;51.146;16.986;2022-12-29T04:48:09;7.10;1.00
10443;DHT22;5269;51.146;16.986;2022-12-29T04:50:36;7.10;1.00
10443;DHT22;5269;51.146;16.986;2022-12-29T04:53:03;7.20;1.00
10443;DHT22;5269;51.146;16.986;2022-12-29T04:55:30;7.30;1.00
10443;DHT22;5269;51.146;16.986;2022-12-29T04:57:58;7.40;1.00
10443;DHT22;5269;51.146;16.986;2022-12-29T05:00:25;7.50;1.00
10443;DHT22;5269;51.146;16.986;2022-12-29T05:02:52;7.60;1.00
10443;DHT22;5269;51.146;16.986;2022-12-29T05:05:19;7.70;1.00
10443;DHT22;5269;51.146;16.986;2022-12-29T05:07:45;7.90;1.00
10443;DHT22;5269;51.146;16.986;2022-12-29T05:10:12;8.00;1.00
10443;DHT22;5269;51.146;16.986;2022-12-29T05:12:39;8.00;1.00
10443;DHT22;5269;51.146;16.986;2022-12-29T05:15:09;8.00;1.00
10443;DHT22;5269;51.146;16.986;2022-12-29T05:17:36;8.00;1.00
10443;DHT22;5269;51.146;16.986;2022-12-29T05:20:04;7.90;1.00
10443;DHT22;5269;51.146;16.986;2022-12-29T05:22:31;7.90;1.00
10443;DHT22;5269;51.146;16.986;2022-12-29T05:24:58;7.90;1.00
10443;DHT22;5269;51.146;16.986;2022-12-29T05:27:25;7.90;1.00
10443;DHT22;5269;51.146;16.986;2022-12-29T05:29:52;8.00;1.00
10443;DHT22;5269;51.146;16.986;2022-12-29T05:32:20;8.00;1.00
10443;DHT22;5269;51.146;16.986;2022-12-29T05:34:47;8.00;1.00
10443;DHT22;5269;51.146;16.986;2022-12-29T05:37:15;8.10;1.00
10443;DHT22;5269;51.146;16.986;2022-12-29T05:39:48;8.10;1.00
10443;DHT22;5269;51.146;16.986;2022-12-29T05:42:15;8.20;1.00
10443;DHT22;5269;51.146;16.986;2022-12-29T05:44:42;8.20;1.00
10443;DHT22;5269;51.146;16.986;2022-12-29T05:47:09;8.20;1.00
10443;DHT22;5269;51.146;16.986;2022-12-29T05:49:37;8.20;1.00
10443;DHT22;5269;51.146;16.986;2022-12-29T05:52:05;8.20;1.00
10443;DHT22;5269;51.146;16.986;2022-12-29T05:54:32;8.20;1.00
10443;DHT22;5269;51.146;16.986;2022-12-29T05:57:01;8.10;1.00
10443;DHT22;5269;51.146;16.986;2022-12-29T05:59:30;8.10;1.00
10443;DHT22;5269;51.146;16.986;2022-12-29T06:01:59;8.00;1.00
10443;DHT22;5269;51.146;16.986;2022-12-29T06:04:26;8.00;1.00
10443;DHT22;5269;51.146;16.986;2022-12-29T06:06:54;8.10;1.00
10443;DHT22;5269;51.146;16.986;2022-12-29T06:09:21;8.10;1.00
10443;DHT22;5269;51.146;16.986;2022-12-29T06:11:48;8.10;1.00
10443;DHT22;5269;51.146;16.986;2022-12-29T06:14:15;8.10;1.00
10443;DHT22;5269;51.146;16.986;2022-12-29T06:16:42;8.10;1.00
10443;DHT22;5269;51.146;16.986;2022-12-29T06:19:09;8.10;1.00
10443;DHT22;5269;51.146;16.986;2022-12-29T06:21:36;8.00;1.00
10443;DHT22;5269;51.146;16.986;2022-12-29T06:24:05;8.00;1.00
10443;DHT22;5269;51.146;16.986;2022-12-29T06:26:32;8.00;1.00
10443;DHT22;5269;51.146;16.986;2022-12-29T06:28:59;8.00;1.00
10443;DHT22;5269;51.146;16.986;2022-12-29T06:31:27;8.00;1.00
10443;DHT22;5269;51.146;16.986;2022-12-29T06:33:54;8.00;1.00
10443;DHT22;5269;51.146;16.986;2022-12-29T06:36:21;8.00;1.00
10443;DHT22;5269;51.146;16.986;2022-12-29T06:38:48;8.00;1.00
10443;DHT22;5269;51.146;16.986;2022-12-29T06:41:19;8.00;1.00
10443;DHT22;5269;51.146;16.986;2022-12-29T06:43:46;7.90;1.00
10443;DHT22;5269;51.146;16.986;2022-12-29T06:46:13;7.90;1.00
10443;DHT22;5269;51.146;16.986;2022-12-29T06:48:40;7.90;1.00
10443;DHT22;5269;51.146;16.986;2022-12-29T06:51:07;8.00;1.00
10443;DHT22;5269;51.146;16.986;2022-12-29T06:53:35;8.00;1.00
10443;DHT22;5269;51.146;16.986;2022-12-29T06:56:02;8.00;1.00
10443;DHT22;5269;51.146;16.986;2022-12-29T06:58:30;8.00;1.00
10443;DHT22;5269;51.146;16.986;2022-12-29T07:00:57;8.10;1.00
10443;DHT22;5269;51.146;16.986;2022-12-29T07:03:24;8.10;1.00
10443;DHT22;5269;51.146;16.986;2022-12-29T07:05:51;8.20;1.00
10443;DHT22;5269;51.146;16.986;2022-12-29T07:08:18;8.30;1.00
10443;DHT22;5269;51.146;16.986;2022-12-29T07:10:45;8.50;1.00
10443;DHT22;5269;51.146;16.986;2022-12-29T07:13:12;8.50;1.00
10443;DHT22;5269;51.146;16.986;2022-12-29T07:15:41;8.60;1.00
10443;DHT22;5269;51.146;16.986;2022-12-29T07:18:08;8.70;1.00
10443;DHT22;5269;51.146;16.986;2022-12-29T07:20:35;8.80;1.00
10443;DHT22;5269;51.146;16.986;2022-12-29T07:23:02;8.80;1.00
10443;DHT22;5269;51.146;16.986;2022-12-29T07:25:29;8.90;1.00
10443;DHT22;5269;51.146;16.986;2022-12-29T07:27:56;9.00;1.00
10443;DHT22;5269;51.146;16.986;2022-12-29T07:30:23;9.10;1.00
10443;DHT22;5269;51.146;16.986;2022-12-29T07:32:51;9.20;1.00
10443;DHT22;5269;51.146;16.986;2022-12-29T07:35:18;9.20;1.00
10443;DHT22;5269;51.146;16.986;2022-12-29T07:37:45;9.20;1.00
10443;DHT22;5269;51.146;16.986;2022-12-29T07:40:12;9.20;1.00
10443;DHT22;5269;51.146;16.986;2022-12-29T07:42:40;9.30;1.00
10443;DHT22;5269;51.146;16.986;2022-12-29T07:46:31;9.30;1.00
10443;DHT22;5269;51.146;16.986;2022-12-29T07:48:43;9.40;1.00
10443;DHT22;5269;51.146;16.986;2022-12-29T07:51:15;9.40;1.00
10443;DHT22;5269;51.146;16.986;2022-12-29T07:53:42;9.30;1.00
10443;DHT22;5269;51.146;16.986;2022-12-29T07:56:09;9.30;1.00
10443;DHT22;5269;51.146;16.986;2022-12-29T07:58:36;9.40;1.00
10443;DHT22;5269;51.146;16.986;2022-12-29T08:01:03;9.30;1.00
10443;DHT22;5269;51.146;16.986;2022-12-29T08:03:32;9.40;1.00
10443;DHT22;5269;51.146;16.986;2022-12-29T08:06:01;9.40;1.00
10443;DHT22;5269;51.146;16.986;2022-12-29T08:08:27;9.40;1.00
10443;DHT22;5269;51.146;16.986;2022-12-29T08:10:54;9.50;1.00
10443;DHT22;5269;51.146;16.986;2022-12-29T08:13:21;9.40;1.00
10443;DHT22;5269;51.146;16.986;2022-12-29T08:15:48;9.40;1.00
10443;DHT22;5269;51.146;16.986;2022-12-29T08:18:15;9.50;1.00
10443;DHT22;5269;51.146;16.986;2022-12-29T08:20:42;9.50;1.00
10443;DHT22;5269;51.146;16.986;2022-12-29T08:23:10;9.50;1.00
10443;DHT22;5269;51.146;16.986;2022-12-29T08:25:37;9.60;1.00
10443;DHT22;5269;51.146;16.986;2022-12-29T08:28:28;9.70;1.00
10443;DHT22;5269;51.146;16.986;2022-12-29T08:31:11;9.60;1.00
10443;DHT22;5269;51.146;16.986;2022-12-29T08:33:37;9.70;1.00
10443;DHT22;5269;51.146;16.986;2022-12-29T08:36:06;9.70;1.00
10443;DHT22;5269;51.146;16.986;2022-12-29T08:38:35;9.80;1.00
10443;DHT22;5269;51.146;16.986;2022-12-29T08:41:02;9.90;1.00
10443;DHT22;5269;51.146;16.986;2022-12-29T08:43:29;9.90;1.00
10443;DHT22;5269;51.146;16.986;2022-12-29T08:45:57;10.00;1.00
10443;DHT22;5269;51.146;16.986;2022-12-29T08:48:24;10.00;1.00
10443;DHT22;5269;51.146;16.986;2022-12-29T08:50:51;10.10;1.00
10443;DHT22;5269;51.146;16.986;2022-12-29T08:53:18;10.10;1.00
10443;DHT22;5269;51.146;16.986;2022-12-29T08:55:47;10.10;1.00
10443;DHT22;5269;51.146;16.986;2022-12-29T08:58:14;10.00;1.00
10443;DHT22;5269;51.146;16.986;2022-12-29T09:00:42;9.90;1.00
10443;DHT22;5269;51.146;16.986;2022-12-29T09:03:09;9.80;1.00
10443;DHT22;5269;51.146;16.986;2022-12-29T09:05:36;9.80;1.00
10443;DHT22;5269;51.146;16.986;2022-12-29T09:08:03;9.90;1.00
10443;DHT22;5269;51.146;16.986;2022-12-29T09:10:31;9.80;1.00
10443;DHT22;5269;51.146;16.986;2022-12-29T09:12:59;9.80;1.00
10443;DHT22;5269;51.146;16.986;2022-12-29T09:15:26;9.80;1.00
10443;DHT22;5269;51.146;16.986;2022-12-29T09:17:53;9.80;1.00
10443;DHT22;5269;51.146;16.986;2022-12-29T09:20:21;9.80;1.00
10443;DHT22;5269;51.146;16.986;2022-12-29T09:22:49;9.80;1.00
10443;DHT22;5269;51.146;16.986;2022-12-29T09:25:16;9.90;1.00
10443;DHT22;5269;51.146;16.986;2022-12-29T09:27:43;9.90;1.00
10443;DHT22;5269;51.146;16.986;2022-12-29T09:30:12;9.90;1.00
10443;DHT22;5269;51.146;16.986;2022-12-29T09:32:40;9.90;1.00
10443;DHT22;5269;51.146;16.986;2022-12-29T09:35:07;10.00;1.00
10443;DHT22;5269;51.146;16.986;2022-12-29T09:37:34;9.90;1.00
10443;DHT22;5269;51.146;16.986;2022-12-29T09:40:01;9.90;1.00
10443;DHT22;5269;51.146;16.986;2022-12-29T09:42:34;9.90;1.00
10443;DHT22;5269;51.146;16.986;2022-12-29T09:45:12;9.90;1.00
10443;DHT22;5269;51.146;16.986;2022-12-29T09:47:50;9.90;1.00
10443;DHT22;5269;51.146;16.986;2022-12-29T09:50:22;9.90;1.00
10443;DHT22;5269;51.146;16.986;2022-12-29T09:53:05;10.00;1.00
10443;DHT22;5269;51.146;16.986;2022-12-29T09:55:38;10.00;1.00
10443;DHT22;5269;51.146;16.986;2022-12-29T09:58:10;10.10;1.00
10443;DHT22;5269;51.146;16.986;2022-12-29T10:00:47;10.20;1.00
10443;DHT22;5269;51.146;16.986;2022-12-29T10:03:16;10.30;1.00
10443;DHT22;5269;51.146;16.986;2022-12-29T10:05:49;10.30;1.00
10443;DHT22;5269;51.146;16.986;2022-12-29T10:08:30;10.30;1.00
10443;DHT22;5269;51.146;16.986;2022-12-29T10:11:09;10.30;1.00
10443;DHT22;5269;51.146;16.986;2022-12-29T10:13:52;10.40;1.00
10443;DHT22;5269;51.146;16.986;2022-12-29T10:16:30;10.40;1.00
10443;DHT22;5269;51.146;16.986;2022-12-29T10:19:11;10.40;1.00
10443;DHT22;5269;51.146;16.986;2022-12-29T10:21:55;10.40;1.00
10443;DHT22;5269;51.146;16.986;2022-12-29T10:24:26;10.50;1.00
10443;DHT22;5269;51.146;16.986;2022-12-29T10:26:56;10.40;1.00
10443;DHT22;5269;51.146;16.986;2022-12-29T10:29:33;10.50;1.00
10443;DHT22;5269;51.146;16.986;2022-12-29T10:32:15;10.50;1.00
10443;DHT22;5269;51.146;16.986;2022-12-29T10:34:49;10.50;1.00
10443;DHT22;5269;51.146;16.986;2022-12-29T10:37:27;10.50;1.00
10443;DHT22;5269;51.146;16.986;2022-12-29T10:39:58;10.50;1.00
10443;DHT22;5269;51.146;16.986;2022-12-29T10:42:37;10.50;1.00
10443;DHT22;5269;51.146;16.986;2022-12-29T10:45:12;10.50;1.00
10443;DHT22;5269;51.146;16.986;2022-12-29T10:47:53;10.60;1.00
10443;DHT22;5269;51.146;16.986;2022-12-29T10:50:21;10.60;1.00
10443;DHT22;5269;51.146;16.986;2022-12-29T10:52:49;10.60;1.00
10443;DHT22;5269;51.146;16.986;2022-12-29T10:55:22;10.70;1.00
10443;DHT22;5269;51.146;16.986;2022-12-29T10:57:53;10.70;1.00
10443;DHT22;5269;51.146;16.986;2022-12-29T11:00:23;10.60;1.00
10443;DHT22;5269;51.146;16.986;2022-12-29T11:03:18;10.70;1.00
10443;DHT22;5269;51.146;16.986;2022-12-29T11:05:55;10.60;1.00
10443;DHT22;5269;51.146;16.986;2022-12-29T11:08:28;10.60;1.00
10443;DHT22;5269;51.146;16.986;2022-12-29T11:10:59;10.70;1.00
10443;DHT22;5269;51.146;16.986;2022-12-29T11:13:31;10.70;1.00
10443;DHT22;5269;51.146;16.986;2022-12-29T11:15:59;10.70;1.00
10443;DHT22;5269;51.146;16.986;2022-12-29T11:18:35;10.70;1.00
10443;DHT22;5269;51.146;16.986;2022-12-29T11:21:29;10.70;1.00
10443;DHT22;5269;51.146;16.986;2022-12-29T11:23:58;10.80;1.00
10443;DHT22;5269;51.146;16.986;2022-12-29T11:26:26;10.80;1.00
10443;DHT22;5269;51.146;16.986;2022-12-29T11:29:20;10.80;1.00
10443;DHT22;5269;51.146;16.986;2022-12-29T11:31:49;10.80;1.00
10443;DHT22;5269;51.146;16.986;2022-12-29T11:34:22;10.90;1.00
10443;DHT22;5269;51.146;16.986;2022-12-29T11:36:53;10.90;1.00
10443;DHT22;5269;51.146;16.986;2022-12-29T11:39:31;10.90;1.00
10443;DHT22;5269;51.146;16.986;2022-12-29T11:42:01;10.90;1.00
10443;DHT22;5269;51.146;16.986;2022-12-29T11:44:37;11.00;1.00
10443;DHT22;5269;51.146;16.986;2022-12-29T11:47:11;11.00;1.00
10443;DHT22;5269;51.146;16.986;2022-12-29T11:49:49;11.00;1.00
10443;DHT22;5269;51.146;16.986;2022-12-29T11:52:21;11.10;1.00
10443;DHT22;5269;51.146;16.986;2022-12-29T11:54:50;11.10;1.00
10443;DHT22;5269;51.146;16.986;2022-12-29T11:57:18;11.00;1.00
10443;DHT22;5269;51.146;16.986;2022-12-29T11:59:49;11.00;1.00
10443;DHT22;5269;51.146;16.986;2022-12-29T12:02:39;11.00;1.00
10443;DHT22;5269;51.146;16.986;2022-12-29T12:05:28;11.00;1.00
10443;DHT22;5269;51.146;16.986;2022-12-29T12:08:02;11.10;1.00
10443;DHT22;5269;51.146;16.986;2022-12-29T12:10:32;11.00;1.00
10443;DHT22;5269;51.146;16.986;2022-12-29T12:13:09;11.00;1.00
10443;DHT22;5269;51.146;16.986;2022-12-29T12:16:06;10.90;1.00
10443;DHT22;5269;51.146;16.986;2022-12-29T12:18:49;10.90;1.00
10443;DHT22;5269;51.146;16.986;2022-12-29T12:21:23;10.90;1.00
10443;DHT22;5269;51.146;16.986;2022-12-29T12:24:22;10.90;1.00
10443;DHT22;5269;51.146;16.986;2022-12-29T12:26:58;10.90;1.00
10443;DHT22;5269;51.146;16.986;2022-12-29T12:29:33;10.80;1.00
10443;DHT22;5269;51.146;16.986;2022-12-29T12:32:11;10.80;1.00
10443;DHT22;5269;51.146;16.986;2022-12-29T12:34:42;10.80;1.00
10443;DHT22;5269;51.146;16.986;2022-12-29T12:40:27;10.80;1.00
10443;DHT22;5269;51.146;16.986;2022-12-29T12:43:22;10.80;1.00
10443;DHT22;5269;51.146;16.986;2022-12-29T12:46:01;10.70;1.00
10443;DHT22;5269;51.146;16.986;2022-12-29T12:48:47;10.70;1.00
10443;DHT22;5269;51.146;16.986;2022-12-29T12:51:20;10.70;1.00
10443;DHT22;5269;51.146;16.986;2022-12-29T12:54:08;10.70;1.00
10443;DHT22;5269;51.146;16.986;2022-12-29T12:56:56;10.70;1.00
10443;DHT22;5269;51.146;16.986;2022-12-29T12:59:40;10.80;1.00
10443;DHT22;5269;51.146;16.986;2022-12-29T13:02:20;10.80;1.00
10443;DHT22;5269;51.146;16.986;2022-12-29T13:05:20;10.80;1.00
10443;DHT22;5269;51.146;16.986;2022-12-29T13:08:06;10.80;1.00
10443;DHT22;5269;51.146;16.986;2022-12-29T13:10:46;10.80;1.00
10443;DHT22;5269;51.146;16.986;2022-12-29T13:13:35;10.80;1.00
10443;DHT22;5269;51.146;16.986;2022-12-29T13:16:13;10.80;1.00
10443;DHT22;5269;51.146;16.986;2022-12-29T13:18:51;10.70;1.00
10443;DHT22;5269;51.146;16.986;2022-12-29T13:21:30;10.70;1.00
10443;DHT22;5269;51.146;16.986;2022-12-29T13:24:05;10.70;1.00
10443;DHT22;5269;51.146;16.986;2022-12-29T13:26:42;10.70;1.00
10443;DHT22;5269;51.146;16.986;2022-12-29T13:29:16;10.70;1.00
10443;DHT22;5269;51.146;16.986;2022-12-29T13:31:50;10.70;1.00
10443;DHT22;5269;51.146;16.986;2022-12-29T13:34:26;10.70;1.00
10443;DHT22;5269;51.146;16.986;2022-12-29T13:36:59;10.70;1.00
10443;DHT22;5269;51.146;16.986;2022-12-29T13:39:30;10.70;1.00
10443;DHT22;5269;51.146;16.986;2022-12-29T13:42:02;10.90;1.00
10443;DHT22;5269;51.146;16.986;2022-12-29T13:44:32;10.80;1.00
10443;DHT22;5269;51.146;16.986;2022-12-29T13:47:06;10.90;1.00
10443;DHT22;5269;51.146;16.986;2022-12-29T13:49:37;10.90;1.00
10443;DHT22;5269;51.146;16.986;2022-12-29T13:52:12;10.90;1.00
10443;DHT22;5269;51.146;16.986;2022-12-29T13:54:49;10.90;1.00
10443;DHT22;5269;51.146;16.986;2022-12-29T13:57:30;10.90;1.00
10443;DHT22;5269;51.146;16.986;2022-12-29T14:00:02;10.90;1.00
10443;DHT22;5269;51.146;16.986;2022-12-29T14:02:37;10.90;1.00
10443;DHT22;5269;51.146;16.986;2022-12-29T14:05:27;10.90;1.00
10443;DHT22;5269;51.146;16.986;2022-12-29T14:08:01;10.90;1.00
10443;DHT22;5269;51.146;16.986;2022-12-29T14:10:32;10.90;1.00
10443;DHT22;5269;51.146;16.986;2022-12-29T14:13:05;10.90;1.00
10443;DHT22;5269;51.146;16.986;2022-12-29T14:15:33;11.00;1.00
10443;DHT22;5269;51.146;16.986;2022-12-29T14:18:13;10.90;1.00
10443;DHT22;5269;51.146;16.986;2022-12-29T14:20:52;10.90;1.00
10443;DHT22;5269;51.146;16.986;2022-12-29T14:23:37;10.90;1.00
10443;DHT22;5269;51.146;16.986;2022-12-29T14:26:13;10.90;1.00
10443;DHT22;5269;51.146;16.986;2022-12-29T14:28:43;10.90;1.00
10443;DHT22;5269;51.146;16.986;2022-12-29T14:31:33;10.90;1.00
10443;DHT22;5269;51.146;16.986;2022-12-29T14:34:26;10.90;1.00
10443;DHT22;5269;51.146;16.986;2022-12-29T14:36:55;10.80;1.00
10443;DHT22;5269;51.146;16.986;2022-12-29T14:39:35;10.70;1.00
10443;DHT22;5269;51.146;16.986;2022-12-29T14:42:05;10.80;1.00
10443;DHT22;5269;51.146;16.986;2022-12-29T14:44:46;10.70;1.00
10443;DHT22;5269;51.146;16.986;2022-12-29T14:47:19;10.60;1.00
10443;DHT22;5269;51.146;16.986;2022-12-29T14:49:49;10.50;1.00
10443;DHT22;5269;51.146;16.986;2022-12-29T14:52:19;10.40;1.00
10443;DHT22;5269;51.146;16.986;2022-12-29T14:54:52;10.40;1.00
10443;DHT22;5269;51.146;16.986;2022-12-29T14:57:30;10.30;1.00
10443;DHT22;5269;51.146;16.986;2022-12-29T15:00:23;10.20;1.00
10443;DHT22;5269;51.146;16.986;2022-12-29T15:03:02;10.00;1.00
10443;DHT22;5269;51.146;16.986;2022-12-29T15:05:34;9.90;1.00
10443;DHT22;5269;51.146;16.986;2022-12-29T15:08:04;9.80;1.00
10443;DHT22;5269;51.146;16.986;2022-12-29T15:10:37;9.60;1.00
10443;DHT22;5269;51.146;16.986;2022-12-29T15:13:14;9.50;1.00
10443;DHT22;5269;51.146;16.986;2022-12-29T15:15:43;9.40;1.00
10443;DHT22;5269;51.146;16.986;2022-12-29T15:18:23;9.30;1.00
10443;DHT22;5269;51.146;16.986;2022-12-29T15:20:52;9.30;1.00
10443;DHT22;5269;51.146;16.986;2022-12-29T15:23:20;9.30;1.00
10443;DHT22;5269;51.146;16.986;2022-12-29T15:25:50;9.30;1.00
10443;DHT22;5269;51.146;16.986;2022-12-29T15:28:20;9.20;1.00
10443;DHT22;5269;51.146;16.986;2022-12-29T15:30:53;9.20;1.00
10443;DHT22;5269;51.146;16.986;2022-12-29T15:33:24;9.10;1.00
10443;DHT22;5269;51.146;16.986;2022-12-29T15:35:54;9.10;1.00
10443;DHT22;5269;51.146;16.986;2022-12-29T15:38:23;9.10;1.00
10443;DHT22;5269;51.146;16.986;2022-12-29T15:40:56;9.10;1.00
10443;DHT22;5269;51.146;16.986;2022-12-29T15:43:33;9.00;1.00
10443;DHT22;5269;51.146;16.986;2022-12-29T15:46:02;9.00;1.00
10443;DHT22;5269;51.146;16.986;2022-12-29T15:48:30;9.00;1.00
10443;DHT22;5269;51.146;16.986;2022-12-29T15:50:58;9.00;1.00
10443;DHT22;5269;51.146;16.986;2022-12-29T15:53:27;9.00;1.00
10443;DHT22;5269;51.146;16.986;2022-12-29T15:55:57;8.90;1.00
10443;DHT22;5269;51.146;16.986;2022-12-29T15:58:28;8.90;1.00
10443;DHT22;5269;51.146;16.986;2022-12-29T16:00:57;8.80;1.00
10443;DHT22;5269;51.146;16.986;2022-12-29T16:03:29;8.80;1.00
10443;DHT22;5269;51.146;16.986;2022-12-29T16:06:08;8.70;1.00
10443;DHT22;5269;51.146;16.986;2022-12-29T16:08:39;8.70;1.00
10443;DHT22;5269;51.146;16.986;2022-12-29T16:11:18;8.50;1.00
10443;DHT22;5269;51.146;16.986;2022-12-29T16:13:48;8.50;1.00
10443;DHT22;5269;51.146;16.986;2022-12-29T16:16:18;8.50;1.00
10443;DHT22;5269;51.146;16.986;2022-12-29T16:18:48;8.40;1.00
10443;DHT22;5269;51.146;16.986;2022-12-29T16:21:19;8.40;1.00
10443;DHT22;5269;51.146;16.986;2022-12-29T16:23:49;8.30;1.00
10443;DHT22;5269;51.146;16.986;2022-12-29T16:26:17;8.30;1.00
10443;DHT22;5269;51.146;16.986;2022-12-29T16:28:47;8.20;1.00
10443;DHT22;5269;51.146;16.986;2022-12-29T16:31:20;8.30;1.00
10443;DHT22;5269;51.146;16.986;2022-12-29T16:33:52;8.20;1.00
10443;DHT22;5269;51.146;16.986;2022-12-29T16:36:33;8.20;1.00